Time,TemperatureF,DewpointF,PressureIn,WindDirection,WindDirectionDegrees,WindSpeedMPH,WindSpeedGustMPH,Humidity,HourlyPrecipIn,Conditions,Clouds,dailyrainin,SoftwareType,DateUTC
2013-08-13 00:02:00,67.9,61.9,29.99,ENE,69,1.2,1.2,81,0.00,RA,SKC,0.00,WeatherDisplay:10.37,2013-08-13 05:02:00,
2013-08-13 00:07:00,67.6,61.9,29.99,ENE,75,0.0,0.0,82,0.00,RA,SKC,0.00,WeatherDisplay:10.37,2013-08-13 05:07:00,
2013-08-13 00:12:00,67.3,62.0,29.99,ENE,75,0.0,0.0,83,0.00,CLR,SKC,0.00,WeatherDisplay:10.37,2013-08-13 05:12:00,
2013-08-13 00:17:00,67.1,61.8,29.99,ENE,75,0.0,0.0,83,0.00,CLR,SKC,0.00,WeatherDisplay:10.37,2013-08-13 05:17:00,
2013-08-13 00:22:00,66.9,61.9,29.99,ENE,75,0.0,0.0,84,0.00,CLR,SKC,0.00,WeatherDisplay:10.37,2013-08-13 05:22:00,
2013-08-13 00:27:00,66.6,61.6,29.99,ENE,75,0.0,0.0,84,0.00,CLR,SKC,0.00,WeatherDisplay:10.37,2013-08-13 05:27:00,
2013-08-13 00:32:00,66.3,61.7,29.99,ENE,75,0.0,0.0,85,0.00,CLR,SKC,0.00,WeatherDisplay:10.37,2013-08-13 05:32:00,
2013-08-13 00:37:00,66.1,61.5,29.99,ENE,75,0.0,0.0,85,0.00,CLR,SKC,0.00,WeatherDisplay:10.37,2013-08-13 05:37:00,
2013-08-13 00:42:00,65.8,61.5,29.99,ENE,75,0.0,0.0,86,0.00,CLR,SKC,0.00,WeatherDisplay:10.37,2013-08-13 05:42:00,
2013-08-13 00:47:00,65.4,61.4,29.99,ENE,75,0.0,0.0,87,0.00,CLR,SKC,0.00,WeatherDisplay:10.37,2013-08-13 05:47:00,
2013-08-13 00:52:00,65.0,61.4,29.99,ENE,75,0.0,0.0,88,0.00,CLR,SKC,0.00,WeatherDisplay:10.37,2013-08-13 05:52:00,
2013-08-13 00:57:00,65.0,61.4,29.99,ENE,75,1.2,0.0,88,0.00,CLR,SKC,0.00,WeatherDisplay:10.37,2013-08-13 05:57:00,
2013-08-13 01:02:00,65.1,61.5,29.99,ENE,68,1.2,1.2,88,0.00,CLR,SKC,0.00,WeatherDisplay:10.37,2013-08-13 06:02:00,
2013-08-13 01:07:00,65.3,61.7,30.00,ENE,57,2.3,2.3,88,0.00,CLR,SKC,0.00,WeatherDisplay:10.37,2013-08-13 06:07:00,
2013-08-13 01:12:00,65.5,61.5,30.00,ENE,58,1.2,1.2,87,0.00,CLR,SKC,0.00,WeatherDisplay:10.37,2013-08-13 06:12:00,
2013-08-13 01:17:00,65.8,61.8,30.00,NE,53,2.3,2.3,87,0.00,CLR,SKC,0.00,WeatherDisplay:10.37,2013-08-13 06:17:00,
2013-08-13 01:22:00,65.9,61.9,30.00,NE,53,0.0,0.0,87,0.00,CLR,SKC,0.00,WeatherDisplay:10.37,2013-08-13 06:22:00,
2013-08-13 01:27:00,65.9,61.9,30.00,ENE,64,1.2,1.2,87,0.00,CLR,SKC,0.00,WeatherDisplay:10.37,2013-08-13 06:27:00,
2013-08-13 01:32:00,65.9,61.9,30.00,ENE,65,0.0,0.0,87,0.00,CLR,SKC,0.00,WeatherDisplay:10.37,2013-08-13 06:32:00,
2013-08-13 01:37:00,66.0,61.7,30.00,East,83,2.1,2.1,86,0.00,CLR,SKC,0.00,WeatherDisplay:10.37,2013-08-13 06:37:00,
2013-08-13 01:42:00,66.2,61.9,30.00,NE,46,2.3,2.3,86,0.00,CLR,SKC,0.00,WeatherDisplay:10.37,2013-08-13 06:42:00,
2013-08-13 01:47:00,66.4,61.8,30.00,NE,56,2.3,2.3,85,0.00,CLR,SKC,0.00,WeatherDisplay:10.37,2013-08-13 06:47:00,
2013-08-13 01:52:00,66.3,61.7,30.00,ENE,61,1.2,1.2,85,0.00,CLR,SKC,0.00,WeatherDisplay:10.37,2013-08-13 06:52:00,
2013-08-13 01:57:00,66.1,61.8,30.00,ENE,70,2.1,2.1,86,0.00,CLR,SKC,0.00,WeatherDisplay:10.37,2013-08-13 06:57:00,
2013-08-13 02:02:00,66.0,61.7,30.00,ENE,57,1.2,1.2,86,0.00,CLR,SKC,0.00,WeatherDisplay:10.37,2013-08-13 07:02:00,
2013-08-13 02:07:00,65.9,61.6,30.00,ENE,60,2.3,2.3,86,0.00,CLR,SKC,0.00,WeatherDisplay:10.37,2013-08-13 07:07:00,
2013-08-13 02:12:00,65.8,61.5,30.00,East,79,0.0,0.0,86,0.00,CLR,SKC,0.00,WeatherDisplay:10.37,2013-08-13 07:12:00,
2013-08-13 02:17:00,65.7,61.7,30.00,East,79,0.0,0.0,87,0.00,CLR,SKC,0.00,WeatherDisplay:10.37,2013-08-13 07:17:00,
2013-08-13 02:22:00,65.6,61.6,30.00,East,79,0.0,0.0,87,0.00,CLR,SKC,0.00,WeatherDisplay:10.37,2013-08-13 07:22:00,
2013-08-13 02:27:00,65.4,61.4,30.00,East,79,0.0,0.0,87,0.00,CLR,SKC,0.00,WeatherDisplay:10.37,2013-08-13 07:27:00,
2013-08-13 02:32:00,65.5,61.5,30.00,East,79,0.0,0.0,87,0.00,CLR,SKC,0.00,WeatherDisplay:10.37,2013-08-13 07:32:00,
2013-08-13 02:37:00,65.5,61.5,30.00,East,79,1.2,0.0,87,0.00,CLR,SKC,0.00,WeatherDisplay:10.37,2013-08-13 07:37:00,
2013-08-13 02:42:00,65.4,61.4,30.00,ENE,78,1.2,0.0,87,0.00,CLR,SKC,0.00,WeatherDisplay:10.37,2013-08-13 07:42:00,
2013-08-13 02:47:00,65.1,61.5,30.00,East,79,0.0,0.0,88,0.00,CLR,SKC,0.00,WeatherDisplay:10.37,2013-08-13 07:47:00,
2013-08-13 02:52:00,64.7,61.1,30.00,East,79,0.0,0.0,88,0.00,CLR,SKC,0.00,WeatherDisplay:10.37,2013-08-13 07:52:00,
2013-08-13 02:57:00,64.8,61.5,30.00,ENE,59,2.3,2.3,89,0.00,CLR,SKC,0.00,WeatherDisplay:10.37,2013-08-13 07:57:00,
2013-08-13 03:02:00,64.9,61.3,30.00,ENE,59,0.0,0.0,88,0.00,CLR,SKC,0.00,WeatherDisplay:10.37,2013-08-13 08:02:00,
2013-08-13 03:07:00,64.8,61.2,30.00,ENE,59,0.0,0.0,88,0.00,CLR,SKC,0.00,WeatherDisplay:10.37,2013-08-13 08:07:00,
2013-08-13 03:12:00,64.8,61.2,30.00,ENE,59,0.0,0.0,88,0.00,CLR,SKC,0.00,WeatherDisplay:10.37,2013-08-13 08:12:00,
2013-08-13 03:17:00,64.9,61.3,30.00,ENE,59,0.0,0.0,88,0.00,CLR,SKC,0.00,WeatherDisplay:10.37,2013-08-13 08:17:00,
2013-08-13 03:22:00,64.9,61.3,30.00,ENE,59,0.0,0.0,88,0.00,CLR,SKC,0.00,WeatherDisplay:10.37,2013-08-13 08:22:00,
2013-08-13 03:27:00,64.7,61.1,30.00,ENE,59,0.0,0.0,88,0.00,CLR,SKC,0.00,WeatherDisplay:10.37,2013-08-13 08:27:00,
2013-08-13 03:32:00,64.5,61.2,30.00,ENE,60,0.0,0.0,89,0.00,CLR,SKC,0.00,WeatherDisplay:10.37,2013-08-13 08:32:00,
2013-08-13 03:37:00,64.3,61.0,30.00,ENE,60,1.2,0.0,89,0.00,CLR,SKC,0.00,WeatherDisplay:10.37,2013-08-13 08:37:00,
2013-08-13 03:42:00,64.2,61.2,30.00,ENE,59,0.0,0.0,90,0.00,CLR,SKC,0.00,WeatherDisplay:10.37,2013-08-13 08:42:00,
2013-08-13 03:47:00,64.2,61.2,30.00,ENE,59,0.0,0.0,90,0.00,CLR,SKC,0.00,WeatherDisplay:10.37,2013-08-13 08:47:00,
2013-08-13 03:52:00,64.1,61.1,30.00,ENE,59,2.1,2.1,90,0.00,CLR,SKC,0.00,WeatherDisplay:10.37,2013-08-13 08:52:00,
2013-08-13 03:57:00,64.2,61.2,30.00,ENE,58,2.3,2.3,90,0.00,CLR,SKC,0.00,WeatherDisplay:10.37,2013-08-13 08:57:00,
2013-08-13 04:02:00,63.9,60.9,30.00,NE,51,2.3,2.3,90,0.00,CLR,SKC,0.00,WeatherDisplay:10.37,2013-08-13 09:02:00,
2013-08-13 04:07:00,63.8,60.8,30.00,NE,51,1.2,0.0,90,0.00,CLR,SKC,0.00,WeatherDisplay:10.37,2013-08-13 09:07:00,
2013-08-13 04:12:00,63.7,60.7,30.00,NE,51,0.0,0.0,90,0.00,CLR,SKC,0.00,WeatherDisplay:10.37,2013-08-13 09:12:00,
2013-08-13 04:17:00,63.6,60.6,29.99,NE,54,1.2,0.0,90,0.00,CLR,SKC,0.00,WeatherDisplay:10.37,2013-08-13 09:17:00,
2013-08-13 04:22:00,63.9,60.9,29.99,ENE,60,1.2,1.2,90,0.00,CLR,SKC,0.00,WeatherDisplay:10.37,2013-08-13 09:22:00,
2013-08-13 04:27:00,64.1,60.8,29.99,ENE,61,1.2,1.2,89,0.00,CLR,SKC,0.00,WeatherDisplay:10.37,2013-08-13 09:27:00,
2013-08-13 04:32:00,64.3,61.0,30.00,ENE,66,0.0,0.0,89,0.00,CLR,SKC,0.00,WeatherDisplay:10.37,2013-08-13 09:32:00,
2013-08-13 04:37:00,64.3,60.7,29.99,ENE,59,1.2,0.0,88,0.00,CLR,SKC,0.00,WeatherDisplay:10.37,2013-08-13 09:37:00,
2013-08-13 04:43:00,64.4,60.8,30.00,NE,53,2.3,2.3,88,0.00,CLR,SKC,0.00,WeatherDisplay:10.37,2013-08-13 09:43:00,
2013-08-13 04:48:00,64.4,60.8,29.99,ENE,60,4.6,4.6,88,0.00,CLR,SKC,0.00,WeatherDisplay:10.37,2013-08-13 09:48:00,
2013-08-13 04:53:00,64.4,60.4,29.99,NE,53,4.6,4.6,87,0.00,CLR,SKC,0.00,WeatherDisplay:10.37,2013-08-13 09:53:00,
2013-08-13 04:58:00,64.3,60.7,29.99,East,91,2.3,2.3,88,0.00,CLR,SKC,0.00,WeatherDisplay:10.37,2013-08-13 09:58:00,
2013-08-13 05:03:00,64.2,60.6,29.99,ENE,68,1.2,1.2,88,0.00,CLR,SKC,0.00,WeatherDisplay:10.37,2013-08-13 10:03:00,
2013-08-13 05:08:00,64.0,60.4,29.99,ENE,60,0.0,0.0,88,0.00,CLR,SKC,0.00,WeatherDisplay:10.37,2013-08-13 10:08:00,
2013-08-13 05:13:00,63.9,60.3,29.99,ENE,71,1.2,0.0,88,0.00,CLR,SKC,0.00,WeatherDisplay:10.37,2013-08-13 10:13:00,
2013-08-13 05:18:00,63.8,60.2,30.00,ENE,71,0.0,0.0,88,0.00,CLR,SKC,0.00,WeatherDisplay:10.37,2013-08-13 10:18:00,
2013-08-13 05:23:00,63.7,60.4,30.00,NNE,19,0.0,0.0,89,0.00,CLR,SKC,0.00,WeatherDisplay:10.37,2013-08-13 10:23:00,
2013-08-13 05:28:00,63.6,60.3,30.00,NNE,20,0.0,0.0,89,0.00,CLR,SKC,0.00,WeatherDisplay:10.37,2013-08-13 10:28:00,
2013-08-13 05:33:00,63.5,60.2,30.00,NNE,27,1.2,0.0,89,0.00,CLR,SKC,0.00,WeatherDisplay:10.37,2013-08-13 10:33:00,
2013-08-13 05:38:00,63.3,60.0,30.00,NNE,26,0.0,0.0,89,0.00,CLR,SKC,0.00,WeatherDisplay:10.37,2013-08-13 10:38:00,
2013-08-13 05:43:00,63.2,59.9,30.00,NNE,26,0.0,0.0,89,0.00,CLR,SKC,0.00,WeatherDisplay:10.37,2013-08-13 10:43:00,
2013-08-13 05:48:00,63.1,59.8,30.00,NNE,27,0.0,0.0,89,0.00,CLR,SKC,0.00,WeatherDisplay:10.37,2013-08-13 10:48:00,
2013-08-13 05:53:00,62.9,59.9,30.00,NNE,27,0.0,0.0,90,0.00,CLR,SKC,0.00,WeatherDisplay:10.37,2013-08-13 10:53:00,
2013-08-13 05:58:00,62.8,59.8,30.00,East,101,0.0,0.0,90,0.00,CLR,SKC,0.00,WeatherDisplay:10.37,2013-08-13 10:58:00,
2013-08-13 06:03:00,62.9,59.9,30.00,East,84,1.2,1.2,90,0.00,CLR,SKC,0.00,WeatherDisplay:10.37,2013-08-13 11:03:00,
2013-08-13 06:08:00,62.9,59.9,30.01,East,84,0.0,0.0,90,0.00,CLR,SKC,0.00,WeatherDisplay:10.37,2013-08-13 11:08:00,
2013-08-13 06:13:00,62.7,59.7,30.01,East,89,0.0,0.0,90,0.00,CLR,SKC,0.00,WeatherDisplay:10.37,2013-08-13 11:13:00,
2013-08-13 06:18:00,62.6,59.6,30.01,East,89,0.0,0.0,90,0.00,CLR,SKC,0.00,WeatherDisplay:10.37,2013-08-13 11:18:00,
2013-08-13 06:23:00,62.4,59.4,30.01,SE,136,0.0,0.0,90,0.00,CLR,SKC,0.00,WeatherDisplay:10.37,2013-08-13 11:23:00,
2013-08-13 06:28:00,62.6,59.6,30.01,SE,136,0.0,0.0,90,0.00,CLR,SKC,0.00,WeatherDisplay:10.37,2013-08-13 11:28:00,
2013-08-13 06:33:00,62.6,59.6,30.01,SE,136,0.0,0.0,90,0.00,CLR,SKC,0.00,WeatherDisplay:10.37,2013-08-13 11:33:00,
2013-08-13 06:38:00,62.6,59.6,30.02,SE,136,0.0,0.0,90,0.00,CLR,SKC,0.00,WeatherDisplay:10.37,2013-08-13 11:38:00,
2013-08-13 06:43:00,62.4,59.4,30.02,SE,136,0.0,0.0,90,0.00,CLR,SKC,0.00,WeatherDisplay:10.37,2013-08-13 11:43:00,
2013-08-13 06:48:00,62.2,59.2,30.03,SE,136,0.0,0.0,90,0.00,CLR,SKC,0.00,WeatherDisplay:10.37,2013-08-13 11:48:00,
2013-08-13 06:53:00,62.2,59.2,30.03,SE,136,0.0,0.0,90,0.00,CLR,SKC,0.00,WeatherDisplay:10.37,2013-08-13 11:53:00,
2013-08-13 06:58:00,61.9,59.2,30.03,SE,136,0.0,0.0,91,0.00,CLR,SKC,0.00,WeatherDisplay:10.37,2013-08-13 11:58:00,
2013-08-13 07:03:00,61.9,59.5,30.03,ENE,77,1.2,1.2,92,0.00,CLR,SKC,0.00,WeatherDisplay:10.37,2013-08-13 12:03:00,
2013-08-13 07:08:00,62.2,59.5,30.03,ENE,77,1.1,1.1,91,0.00,CLR,SKC,0.00,WeatherDisplay:10.37,2013-08-13 12:08:00,
2013-08-13 07:13:00,62.2,59.5,30.02,ENE,68,2.3,2.3,91,0.00,CLR,SKC,0.00,WeatherDisplay:10.37,2013-08-13 12:13:00,
2013-08-13 07:18:00,62.4,59.4,30.02,NE,56,1.1,1.1,90,0.00,CLR,SKC,0.00,WeatherDisplay:10.37,2013-08-13 12:18:00,
2013-08-13 07:23:00,62.6,59.9,30.03,NE,56,0.0,0.0,91,0.00,CLR,SKC,0.00,WeatherDisplay:10.37,2013-08-13 12:23:00,
2013-08-13 07:28:00,62.8,60.1,30.03,NE,56,0.0,0.0,91,0.00,CLR,SKC,0.00,WeatherDisplay:10.37,2013-08-13 12:28:00,
2013-08-13 07:33:00,63.0,60.0,30.03,NE,56,0.0,0.0,90,0.00,CLR,SKC,0.00,WeatherDisplay:10.37,2013-08-13 12:33:00,
2013-08-13 07:38:00,63.1,60.1,30.03,NE,56,0.0,0.0,90,0.00,CLR,SKC,0.00,WeatherDisplay:10.37,2013-08-13 12:38:00,
2013-08-13 07:43:00,63.3,60.3,30.04,NE,56,0.0,0.0,90,0.00,CLR,SKC,0.00,WeatherDisplay:10.37,2013-08-13 12:43:00,
2013-08-13 07:48:00,63.2,59.9,30.04,NE,56,0.0,0.0,89,0.00,CLR,SKC,0.00,WeatherDisplay:10.37,2013-08-13 12:48:00,
2013-08-13 07:53:00,63.2,59.9,30.04,NE,56,0.0,0.0,89,0.00,CLR,SKC,0.00,WeatherDisplay:10.37,2013-08-13 12:53:00,
2013-08-13 07:58:00,63.9,60.6,30.04,NE,56,0.0,0.0,89,0.00,CLR,SKC,0.00,WeatherDisplay:10.37,2013-08-13 12:58:00,
2013-08-13 08:03:00,64.5,60.5,30.04,NE,56,0.0,0.0,87,0.00,CLR,SKC,0.00,WeatherDisplay:10.37,2013-08-13 13:03:00,
2013-08-13 08:08:00,65.3,61.0,30.04,NNW,341,0.0,0.0,86,0.00,CLR,SKC,0.00,WeatherDisplay:10.37,2013-08-13 13:08:00,
2013-08-13 08:13:00,66.0,60.7,30.04,NE,34,1.2,1.2,83,0.00,CLR,SKC,0.00,WeatherDisplay:10.37,2013-08-13 13:13:00,
2013-08-13 08:18:00,66.8,61.1,30.04,NE,56,1.2,1.2,82,0.00,CLR,SKC,0.00,WeatherDisplay:10.37,2013-08-13 13:18:00,
2013-08-13 08:23:00,67.5,61.5,30.04,NE,51,1.2,1.2,81,0.00,CLR,SKC,0.00,WeatherDisplay:10.37,2013-08-13 13:23:00,
2013-08-13 08:28:00,67.8,61.0,30.05,ENE,67,2.1,2.1,79,0.00,CLR,SKC,0.00,WeatherDisplay:10.37,2013-08-13 13:28:00,
2013-08-13 08:33:00,68.0,60.9,30.05,ENE,69,1.2,1.2,78,0.00,CLR,SKC,0.00,WeatherDisplay:10.37,2013-08-13 13:33:00,
2013-08-13 08:38:00,68.7,61.2,30.04,ENE,78,2.3,2.3,77,0.00,CLR,SKC,0.00,WeatherDisplay:10.37,2013-08-13 13:38:00,
2013-08-13 08:43:00,68.6,61.1,30.05,ENE,63,2.1,2.1,77,0.00,CLR,SKC,0.00,WeatherDisplay:10.37,2013-08-13 13:43:00,
2013-08-13 08:48:00,68.8,61.7,30.05,ENE,74,3.2,3.2,78,0.00,CLR,SKC,0.00,WeatherDisplay:10.37,2013-08-13 13:48:00,
2013-08-13 08:53:00,68.9,61.0,30.05,ENE,71,2.3,2.3,76,0.00,CLR,SKC,0.00,WeatherDisplay:10.37,2013-08-13 13:53:00,
2013-08-13 08:58:00,69.7,61.8,30.05,East,89,2.1,2.1,76,0.00,CLR,SKC,0.00,WeatherDisplay:10.37,2013-08-13 13:58:00,
2013-08-13 09:03:00,69.8,61.9,30.06,ENE,64,2.3,2.3,76,0.00,CLR,SKC,0.00,WeatherDisplay:10.37,2013-08-13 14:03:00,
2013-08-13 09:08:00,69.9,61.2,30.06,East,84,2.3,2.3,74,0.00,CLR,SKC,0.00,WeatherDisplay:10.37,2013-08-13 14:08:00,
2013-08-13 09:13:00,70.3,61.6,30.06,ENE,74,3.5,3.5,74,0.00,CLR,SKC,0.00,WeatherDisplay:10.37,2013-08-13 14:13:00,
2013-08-13 09:18:00,70.7,60.8,30.06,NE,47,3.5,3.5,71,0.00,CLR,SKC,0.00,WeatherDisplay:10.37,2013-08-13 14:18:00,
2013-08-13 09:23:00,70.8,61.3,30.06,ENE,75,3.5,3.5,72,0.00,CLR,SKC,0.00,WeatherDisplay:10.37,2013-08-13 14:23:00,
2013-08-13 09:28:00,71.2,60.9,30.06,ENE,78,2.1,2.1,70,0.00,CLR,SKC,0.00,WeatherDisplay:10.37,2013-08-13 14:28:00,
2013-08-13 09:33:00,71.7,61.4,30.06,East,101,5.3,5.3,70,0.00,CLR,SKC,0.00,WeatherDisplay:10.37,2013-08-13 14:33:00,
2013-08-13 09:38:00,71.7,60.6,30.06,SE,139,3.5,3.5,68,0.00,CLR,SKC,0.00,WeatherDisplay:10.37,2013-08-13 14:38:00,
2013-08-13 09:43:00,72.1,61.0,30.06,ENE,62,4.6,4.6,68,0.00,CLR,SKC,0.00,WeatherDisplay:10.37,2013-08-13 14:43:00,
2013-08-13 09:48:00,71.8,61.9,30.06,ESE,104,2.3,2.3,71,0.00,CLR,SKC,0.00,WeatherDisplay:10.37,2013-08-13 14:48:00,
2013-08-13 09:53:00,72.4,61.7,30.06,ENE,68,4.6,4.6,69,0.00,CLR,SKC,0.00,WeatherDisplay:10.37,2013-08-13 14:53:00,
2013-08-13 09:58:00,72.7,61.1,30.07,ENE,70,3.5,3.5,67,0.00,CLR,SKC,0.00,WeatherDisplay:10.37,2013-08-13 14:58:00,
2013-08-13 10:03:00,73.1,61.5,30.07,East,82,4.2,4.2,67,0.00,CLR,SKC,0.00,WeatherDisplay:10.37,2013-08-13 15:03:00,
2013-08-13 10:08:00,73.3,61.7,30.07,SE,128,3.5,3.5,67,0.00,CLR,SKC,0.00,WeatherDisplay:10.37,2013-08-13 15:08:00,
2013-08-13 10:13:00,73.4,60.9,30.07,ENE,60,4.6,4.6,65,0.00,CLR,SKC,0.00,WeatherDisplay:10.37,2013-08-13 15:13:00,
2013-08-13 10:19:00,73.5,61.0,30.08,ESE,116,5.8,5.8,65,0.00,CLR,SKC,0.00,WeatherDisplay:10.37,2013-08-13 15:19:00,
2013-08-13 10:24:00,73.5,60.6,30.08,ENE,76,4.6,4.6,64,0.00,CLR,SKC,0.00,WeatherDisplay:10.37,2013-08-13 15:24:00,
2013-08-13 10:29:00,74.0,62.8,30.08,ENE,60,6.4,6.4,68,0.00,CLR,SKC,0.00,WeatherDisplay:10.37,2013-08-13 15:29:00,
2013-08-13 10:34:00,74.1,60.7,30.08,East,96,6.9,6.9,63,0.00,CLR,SKC,0.00,WeatherDisplay:10.37,2013-08-13 15:34:00,
2013-08-13 10:39:00,74.2,59.9,30.08,ESE,103,3.5,3.5,61,0.00,CLR,SKC,0.00,WeatherDisplay:10.37,2013-08-13 15:39:00,
2013-08-13 10:44:00,74.5,61.1,30.08,East,96,6.9,6.9,63,0.00,CLR,SKC,0.00,WeatherDisplay:10.37,2013-08-13 15:44:00,
2013-08-13 10:49:00,74.5,59.7,30.08,ENE,65,5.3,5.3,60,0.00,CLR,SKC,0.00,WeatherDisplay:10.37,2013-08-13 15:49:00,
2013-08-13 10:54:00,74.4,60.1,30.08,ENE,75,4.6,4.6,61,0.00,CLR,SKC,0.00,WeatherDisplay:10.37,2013-08-13 15:54:00,
2013-08-13 10:59:00,74.8,61.4,30.09,ENE,76,4.6,4.6,63,0.00,CLR,SKC,0.00,WeatherDisplay:10.37,2013-08-13 15:59:00,
2013-08-13 11:04:00,75.2,58.4,30.09,ESE,106,4.2,4.2,56,0.00,CLR,SKC,0.00,WeatherDisplay:10.37,2013-08-13 16:04:00,
2013-08-13 11:09:00,75.5,59.7,30.09,NE,56,4.6,4.6,58,0.00,CLR,SKC,0.00,WeatherDisplay:10.37,2013-08-13 16:09:00,
2013-08-13 11:14:00,75.8,60.9,30.09,ENE,60,6.9,6.9,60,0.00,CLR,SKC,0.00,WeatherDisplay:10.37,2013-08-13 16:14:00,
2013-08-13 11:19:00,75.7,59.9,30.08,ESE,103,5.8,5.8,58,0.00,CLR,SKC,0.00,WeatherDisplay:10.37,2013-08-13 16:19:00,
2013-08-13 11:24:00,75.4,59.1,30.09,ESE,108,5.8,5.8,57,0.00,CLR,SKC,0.00,WeatherDisplay:10.37,2013-08-13 16:24:00,
2013-08-13 11:29:00,75.3,59.0,30.09,ESE,103,5.8,5.8,57,0.00,CLR,SKC,0.00,WeatherDisplay:10.37,2013-08-13 16:29:00,
2013-08-13 11:34:00,75.7,57.9,30.08,East,100,6.9,6.9,54,0.00,CLR,SKC,0.00,WeatherDisplay:10.37,2013-08-13 16:34:00,
2013-08-13 11:39:00,75.8,60.4,30.09,East,98,5.8,5.8,59,0.00,CLR,SKC,0.00,WeatherDisplay:10.37,2013-08-13 16:39:00,
2013-08-13 11:44:00,76.1,58.8,30.08,East,97,7.4,7.4,55,0.00,CLR,SKC,0.00,WeatherDisplay:10.37,2013-08-13 16:44:00,
2013-08-13 11:49:00,76.1,58.8,30.08,ENE,64,9.5,9.5,55,0.00,CLR,SKC,0.00,WeatherDisplay:10.37,2013-08-13 16:49:00,
2013-08-13 11:54:00,75.5,58.2,30.08,East,79,6.9,6.9,55,0.00,CLR,SKC,0.00,WeatherDisplay:10.37,2013-08-13 16:54:00,
2013-08-13 11:59:00,75.6,58.8,30.08,ENE,68,7.4,7.4,56,0.00,CLR,SKC,0.00,WeatherDisplay:10.37,2013-08-13 16:59:00,
2013-08-13 12:04:00,75.7,58.9,30.08,WNW,302,8.1,8.1,56,0.00,CLR,SKC,0.00,WeatherDisplay:10.37,2013-08-13 17:04:00,
2013-08-13 12:12:00,76.2,58.9,30.08,ENE,60,7.4,7.4,55,0.00,CLR,SKC,0.00,WeatherDisplay:10.37,2013-08-13 17:12:00,
2013-08-13 12:17:00,75.9,57.0,30.08,ENE,73,6.9,6.9,52,0.00,CLR,SKC,0.00,WeatherDisplay:10.37,2013-08-13 17:17:00,
2013-08-13 12:22:00,76.3,58.9,30.08,North,8,6.9,6.9,55,0.00,CLR,SKC,0.00,WeatherDisplay:10.37,2013-08-13 17:22:00,
2013-08-13 12:27:00,76.6,57.1,30.08,NNE,32,6.9,6.9,51,0.00,CLR,SKC,0.00,WeatherDisplay:10.37,2013-08-13 17:27:00,
2013-08-13 12:32:00,77.0,59.6,30.08,NE,42,8.5,8.5,55,0.00,CLR,SKC,0.00,WeatherDisplay:10.37,2013-08-13 17:32:00,
2013-08-13 12:37:00,77.1,57.6,30.08,NNW,347,5.8,5.8,51,0.00,CLR,SKC,0.00,WeatherDisplay:10.37,2013-08-13 17:37:00,
2013-08-13 12:42:00,76.8,56.8,30.08,NW,320,6.9,6.9,50,0.00,CLR,SKC,0.00,WeatherDisplay:10.37,2013-08-13 17:42:00,
2013-08-13 12:47:00,76.1,57.7,30.08,NE,52,7.4,7.4,53,0.00,CLR,SKC,0.00,WeatherDisplay:10.37,2013-08-13 17:47:00,
2013-08-13 12:52:00,75.9,57.0,30.07,NE,53,2.3,2.3,52,0.00,CLR,SKC,0.00,WeatherDisplay:10.37,2013-08-13 17:52:00,
2013-08-13 12:57:00,76.1,58.8,30.07,East,95,5.3,5.3,55,0.00,CLR,SKC,0.00,WeatherDisplay:10.37,2013-08-13 17:57:00,
2013-08-13 13:02:00,76.4,57.5,30.07,ENE,75,6.9,6.9,52,0.00,CLR,SKC,0.00,WeatherDisplay:10.37,2013-08-13 18:02:00,
2013-08-13 13:07:00,76.3,58.4,30.07,NE,35,5.3,5.3,54,0.00,CLR,SKC,0.00,WeatherDisplay:10.37,2013-08-13 18:07:00,
2013-08-13 13:12:00,76.6,58.7,30.07,NNE,20,6.9,6.9,54,0.00,CLR,SKC,0.00,WeatherDisplay:10.37,2013-08-13 18:12:00,
2013-08-13 13:17:00,77.4,58.9,30.07,East,82,8.5,8.5,53,0.00,CLR,SKC,0.00,WeatherDisplay:10.37,2013-08-13 18:17:00,
2013-08-13 13:22:00,77.5,56.8,30.07,NE,45,5.8,5.8,49,0.00,CLR,SKC,0.00,WeatherDisplay:10.37,2013-08-13 18:22:00,
2013-08-13 13:27:00,77.7,57.0,30.07,NNE,24,7.4,7.4,49,0.00,CLR,SKC,0.00,WeatherDisplay:10.37,2013-08-13 18:27:00,
2013-08-13 13:32:00,76.8,56.2,30.08,NE,49,8.5,8.5,49,0.00,CLR,SKC,0.00,WeatherDisplay:10.37,2013-08-13 18:32:00,
2013-08-13 13:37:00,76.8,56.2,30.07,ENE,65,8.5,8.5,49,0.00,CLR,SKC,0.00,WeatherDisplay:10.37,2013-08-13 18:37:00,
2013-08-13 13:42:00,77.0,57.5,30.07,East,93,9.5,9.5,51,0.00,CLR,SKC,0.00,WeatherDisplay:10.37,2013-08-13 18:42:00,
2013-08-13 13:48:00,77.3,58.8,30.07,ENE,70,8.5,8.5,53,0.00,CLR,SKC,0.00,WeatherDisplay:10.37,2013-08-13 18:48:00,
2013-08-13 13:53:00,77.1,57.0,30.07,ENE,74,7.4,7.4,50,0.00,CLR,SKC,0.00,WeatherDisplay:10.37,2013-08-13 18:53:00,
2013-08-13 13:58:00,77.5,59.0,30.07,NNW,347,9.2,9.2,53,0.00,CLR,SKC,0.00,WeatherDisplay:10.37,2013-08-13 18:58:00,
2013-08-13 14:03:00,77.9,57.8,30.07,East,84,6.9,6.9,50,0.00,CLR,SKC,0.00,WeatherDisplay:10.37,2013-08-13 19:03:00,
2013-08-13 14:08:00,77.6,55.2,30.07,ENE,64,8.1,8.1,46,0.00,CLR,SKC,0.00,WeatherDisplay:10.37,2013-08-13 19:08:00,
2013-08-13 14:13:00,77.6,57.5,30.07,East,94,6.9,6.9,50,0.00,CLR,SKC,0.00,WeatherDisplay:10.37,2013-08-13 19:13:00,
2013-08-13 14:18:00,77.7,58.7,30.06,NE,38,4.2,4.2,52,0.00,CLR,SKC,0.00,WeatherDisplay:10.37,2013-08-13 19:18:00,
2013-08-13 14:23:00,77.8,56.5,30.07,ENE,77,8.5,8.5,48,0.00,CLR,SKC,0.00,WeatherDisplay:10.37,2013-08-13 19:23:00,
2013-08-13 14:28:00,77.6,56.9,30.07,East,99,7.4,7.4,49,0.00,CLR,SKC,0.00,WeatherDisplay:10.37,2013-08-13 19:28:00,
2013-08-13 14:33:00,77.5,57.4,30.06,NE,46,8.5,8.5,50,0.00,CLR,SKC,0.00,WeatherDisplay:10.37,2013-08-13 19:33:00,
2013-08-13 14:38:00,77.2,58.2,30.06,East,98,8.5,8.5,52,0.00,CLR,SKC,0.00,WeatherDisplay:10.37,2013-08-13 19:38:00,
2013-08-13 14:43:00,77.1,58.1,30.06,NE,49,8.5,8.5,52,0.00,CLR,SKC,0.00,WeatherDisplay:10.37,2013-08-13 19:43:00,
2013-08-13 14:48:00,77.0,58.0,30.06,NE,56,9.5,9.5,52,0.00,CLR,SKC,0.00,WeatherDisplay:10.37,2013-08-13 19:48:00,
2013-08-13 14:53:00,77.3,59.4,30.06,ESE,117,7.4,7.4,54,0.00,CLR,SKC,0.00,WeatherDisplay:10.37,2013-08-13 19:53:00,
2013-08-13 14:58:00,77.2,58.7,30.06,ENE,72,5.8,5.8,53,0.00,CLR,SKC,0.00,WeatherDisplay:10.37,2013-08-13 19:58:00,
2013-08-13 15:03:00,77.2,58.7,30.06,ENE,64,8.5,8.5,53,0.00,CLR,SKC,0.00,WeatherDisplay:10.37,2013-08-13 20:03:00,
2013-08-13 15:08:00,77.0,58.6,30.06,NE,34,7.4,7.4,53,0.00,CLR,SKC,0.00,WeatherDisplay:10.37,2013-08-13 20:08:00,
2013-08-13 15:13:00,77.4,56.7,30.06,ENE,62,8.1,8.1,49,0.00,CLR,SKC,0.00,WeatherDisplay:10.37,2013-08-13 20:13:00,
2013-08-13 15:18:00,77.7,57.0,30.05,ENE,64,8.5,8.5,49,0.00,CLR,SKC,0.00,WeatherDisplay:10.37,2013-08-13 20:18:00,
2013-08-13 15:23:00,77.4,57.3,30.05,NE,44,5.8,5.8,50,0.00,CLR,SKC,0.00,WeatherDisplay:10.37,2013-08-13 20:23:00,
2013-08-13 15:28:00,77.0,57.5,30.05,East,88,4.6,4.6,51,0.00,CLR,SKC,0.00,WeatherDisplay:10.37,2013-08-13 20:28:00,
2013-08-13 15:33:00,76.7,56.1,30.05,East,86,5.8,5.8,49,0.00,CLR,SKC,0.00,WeatherDisplay:10.37,2013-08-13 20:33:00,
2013-08-13 15:38:00,76.7,56.7,30.05,NE,41,5.8,5.8,50,0.00,CLR,SKC,0.00,WeatherDisplay:10.37,2013-08-13 20:38:00,
2013-08-13 15:43:00,77.0,57.5,30.05,East,79,5.8,5.8,51,0.00,CLR,SKC,0.00,WeatherDisplay:10.37,2013-08-13 20:43:00,
2013-08-13 15:48:00,77.6,59.6,30.05,ENE,78,6.9,6.9,54,0.00,CLR,SKC,0.00,WeatherDisplay:10.37,2013-08-13 20:48:00,
2013-08-13 15:53:00,77.8,56.5,30.05,NE,56,6.9,6.9,48,0.00,CLR,SKC,0.00,WeatherDisplay:10.37,2013-08-13 20:53:00,
2013-08-13 15:58:00,77.8,59.3,30.05,ENE,61,6.4,6.4,53,0.00,CLR,SKC,0.00,WeatherDisplay:10.37,2013-08-13 20:58:00,
2013-08-13 16:03:00,77.8,58.2,30.04,ESE,103,7.4,7.4,51,0.00,CLR,SKC,0.00,WeatherDisplay:10.37,2013-08-13 21:03:00,
2013-08-13 16:08:00,78.1,60.1,30.04,ESE,117,7.4,7.4,54,0.00,CLR,SKC,0.00,WeatherDisplay:10.37,2013-08-13 21:08:00,
2013-08-13 16:13:00,78.0,56.7,30.04,ENE,72,8.5,8.5,48,0.00,CLR,SKC,0.00,WeatherDisplay:10.37,2013-08-13 21:13:00,
2013-08-13 16:18:00,77.7,57.6,30.04,ENE,63,8.1,8.1,50,0.00,CLR,SKC,0.00,WeatherDisplay:10.37,2013-08-13 21:18:00,
2013-08-13 16:23:00,77.4,56.7,30.05,ENE,75,5.8,5.8,49,0.00,CLR,SKC,0.00,WeatherDisplay:10.37,2013-08-13 21:23:00,
2013-08-13 16:28:00,77.3,57.2,30.05,NE,43,0.0,0.0,50,0.00,CLR,SKC,0.00,WeatherDisplay:10.37,2013-08-13 21:28:00,
2013-08-13 16:33:00,77.6,59.1,30.04,ENE,75,4.6,4.6,53,0.00,CLR,SKC,0.00,WeatherDisplay:10.37,2013-08-13 21:33:00,
2013-08-13 16:38:00,77.7,59.2,30.04,NE,49,4.2,4.2,53,0.00,CLR,SKC,0.00,WeatherDisplay:10.37,2013-08-13 21:38:00,
2013-08-13 16:43:00,77.6,57.5,30.04,NE,55,9.5,9.5,50,0.00,CLR,SKC,0.00,WeatherDisplay:10.37,2013-08-13 21:43:00,
2013-08-13 16:48:00,77.4,57.9,30.04,ENE,65,5.8,5.8,51,0.00,CLR,SKC,0.00,WeatherDisplay:10.37,2013-08-13 21:48:00,
2013-08-13 16:53:00,77.3,57.8,30.04,ENE,60,3.5,3.5,51,0.00,CLR,SKC,0.00,WeatherDisplay:10.37,2013-08-13 21:53:00,
2013-08-13 16:58:00,77.2,57.7,30.04,East,79,8.5,8.5,51,0.00,CLR,SKC,0.00,WeatherDisplay:10.37,2013-08-13 21:58:00,
2013-08-13 17:03:00,77.0,58.0,30.03,ENE,75,6.9,6.9,52,0.00,CLR,SKC,0.00,WeatherDisplay:10.37,2013-08-13 22:03:00,
2013-08-13 17:08:00,77.1,59.2,30.03,North,2,3.5,3.5,54,0.00,CLR,SKC,0.00,WeatherDisplay:10.37,2013-08-13 22:08:00,
2013-08-13 17:13:00,77.5,59.5,30.03,NE,48,6.4,6.4,54,0.00,CLR,SKC,0.00,WeatherDisplay:10.37,2013-08-13 22:13:00,
2013-08-13 17:18:00,77.8,57.7,30.03,NNW,347,6.9,6.9,50,0.00,CLR,SKC,0.00,WeatherDisplay:10.37,2013-08-13 22:18:00,
2013-08-13 17:23:00,77.4,57.3,30.03,ENE,69,6.9,6.9,50,0.00,CLR,SKC,0.00,WeatherDisplay:10.37,2013-08-13 22:23:00,
2013-08-13 17:28:00,77.1,58.1,30.03,NNE,29,6.9,6.9,52,0.00,CLR,SKC,0.00,WeatherDisplay:10.37,2013-08-13 22:28:00,
2013-08-13 17:33:00,77.1,57.6,30.03,ENE,72,7.4,7.4,51,0.00,CLR,SKC,0.00,WeatherDisplay:10.37,2013-08-13 22:33:00,
2013-08-13 17:38:00,76.9,57.9,30.03,NE,53,4.6,4.6,52,0.00,CLR,SKC,0.00,WeatherDisplay:10.37,2013-08-13 22:38:00,
2013-08-13 17:43:00,76.7,57.7,30.03,ENE,60,5.8,5.8,52,0.00,CLR,SKC,0.00,WeatherDisplay:10.37,2013-08-13 22:43:00,
2013-08-13 17:48:00,76.5,58.1,30.03,NNE,32,6.9,6.9,53,0.00,CLR,SKC,0.00,WeatherDisplay:10.37,2013-08-13 22:48:00,
2013-08-13 17:53:00,76.7,58.3,30.03,NE,56,5.8,5.8,53,0.00,CLR,SKC,0.00,WeatherDisplay:10.37,2013-08-13 22:53:00,
2013-08-13 17:58:00,76.6,58.7,30.02,ENE,68,5.8,5.8,54,0.00,CLR,SKC,0.00,WeatherDisplay:10.37,2013-08-13 22:58:00,
2013-08-13 18:03:00,76.5,58.1,30.03,ENE,76,4.2,4.2,53,0.00,CLR,SKC,0.00,WeatherDisplay:10.37,2013-08-13 23:03:00,
2013-08-13 18:08:00,76.4,59.0,30.03,ENE,60,3.5,3.5,55,0.00,CLR,SKC,0.00,WeatherDisplay:10.37,2013-08-13 23:08:00,
2013-08-13 18:13:00,76.3,58.4,30.03,ENE,76,3.5,3.5,54,0.00,CLR,SKC,0.00,WeatherDisplay:10.37,2013-08-13 23:13:00,
2013-08-13 18:18:00,76.2,59.9,30.03,NE,56,2.3,2.3,57,0.00,CLR,SKC,0.00,WeatherDisplay:10.37,2013-08-13 23:18:00,
2013-08-13 18:23:00,76.1,59.3,30.03,ENE,63,2.3,2.3,56,0.00,CLR,SKC,0.00,WeatherDisplay:10.37,2013-08-13 23:23:00,
2013-08-13 18:28:00,76.0,58.2,30.03,ENE,69,3.5,3.5,54,0.00,CLR,SKC,0.00,WeatherDisplay:10.37,2013-08-13 23:28:00,
2013-08-13 18:33:00,76.0,57.6,30.03,East,88,4.6,4.6,53,0.00,CLR,SKC,0.00,WeatherDisplay:10.37,2013-08-13 23:33:00,
2013-08-13 18:38:00,76.1,58.2,30.02,East,99,2.3,2.3,54,0.00,CLR,SKC,0.00,WeatherDisplay:10.37,2013-08-13 23:38:00,
2013-08-13 18:43:00,76.0,58.7,30.03,East,98,1.2,1.2,55,0.00,CLR,SKC,0.00,WeatherDisplay:10.37,2013-08-13 23:43:00,
2013-08-13 18:48:00,75.9,59.6,30.02,East,94,0.0,0.0,57,0.00,CLR,SKC,0.00,WeatherDisplay:10.37,2013-08-13 23:48:00,
2013-08-13 18:53:00,75.9,58.6,30.02,NE,47,2.1,2.1,55,0.00,CLR,SKC,0.00,WeatherDisplay:10.37,2013-08-13 23:53:00,
2013-08-13 18:58:00,76.0,58.7,30.02,NE,48,1.2,1.2,55,0.00,CLR,SKC,0.00,WeatherDisplay:10.37,2013-08-13 23:58:00,
2013-08-13 19:03:00,76.4,59.5,30.02,NE,55,1.2,1.2,56,0.00,CLR,SKC,0.00,WeatherDisplay:10.37,2013-08-14 00:03:00,
2013-08-13 19:08:00,76.7,58.3,30.02,ENE,67,2.3,2.3,53,0.00,CLR,SKC,0.00,WeatherDisplay:10.37,2013-08-14 00:08:00,
2013-08-13 19:13:00,76.9,60.0,30.02,East,98,1.1,1.1,56,0.00,CLR,SKC,0.00,WeatherDisplay:10.37,2013-08-14 00:13:00,
2013-08-13 19:18:00,76.9,59.0,30.02,East,97,1.2,1.2,54,0.00,CLR,SKC,0.00,WeatherDisplay:10.37,2013-08-14 00:18:00,
2013-08-13 19:23:00,76.8,59.4,30.02,ESE,113,1.2,1.2,55,0.00,CLR,SKC,0.00,WeatherDisplay:10.37,2013-08-14 00:23:00,
2013-08-13 19:28:00,76.6,61.2,30.02,ESE,113,0.0,0.0,59,0.00,CLR,SKC,0.00,WeatherDisplay:10.37,2013-08-14 00:28:00,
2013-08-13 19:33:00,76.4,59.0,30.02,East,96,1.1,1.1,55,0.00,CLR,SKC,0.00,WeatherDisplay:10.37,2013-08-14 00:33:00,
2013-08-13 19:38:00,76.1,58.8,30.02,East,96,0.0,0.0,55,0.00,CLR,SKC,0.00,WeatherDisplay:10.37,2013-08-14 00:38:00,
2013-08-13 19:43:00,75.9,59.6,30.02,East,96,0.0,0.0,57,0.00,CLR,SKC,0.00,WeatherDisplay:10.37,2013-08-14 00:43:00,
2013-08-13 19:48:00,75.5,59.7,30.02,East,96,0.0,0.0,58,0.00,CLR,SKC,0.00,WeatherDisplay:10.37,2013-08-14 00:48:00,
2013-08-13 19:53:00,75.0,60.6,30.02,East,96,0.0,0.0,61,0.00,CLR,SKC,0.00,WeatherDisplay:10.37,2013-08-14 00:53:00,
2013-08-13 19:58:00,74.3,60.4,30.02,East,96,0.0,0.0,62,0.00,CLR,SKC,0.00,WeatherDisplay:10.37,2013-08-14 00:58:00,
2013-08-13 20:04:00,73.8,60.4,30.02,East,96,0.0,0.0,63,0.00,CLR,SKC,0.00,WeatherDisplay:10.37,2013-08-14 01:04:00,
2013-08-13 20:09:00,73.2,59.8,30.02,East,96,0.0,0.0,63,0.00,CLR,SKC,0.00,WeatherDisplay:10.37,2013-08-14 01:09:00,
2013-08-13 20:14:00,72.8,60.3,30.02,East,96,0.0,0.0,65,0.00,CLR,SKC,0.00,WeatherDisplay:10.37,2013-08-14 01:14:00,
2013-08-13 20:19:00,72.4,61.2,30.02,East,96,0.0,0.0,68,0.00,CLR,SKC,0.00,WeatherDisplay:10.37,2013-08-14 01:19:00,
2013-08-13 20:24:00,71.4,60.7,30.02,East,96,0.0,0.0,69,0.00,CLR,SKC,0.00,WeatherDisplay:10.37,2013-08-14 01:24:00,
2013-08-13 20:29:00,71.1,59.6,30.03,East,96,0.0,0.0,67,0.00,CLR,SKC,0.00,WeatherDisplay:10.37,2013-08-14 01:29:00,
2013-08-13 20:34:00,70.8,59.7,30.03,East,96,0.0,0.0,68,0.00,CLR,SKC,0.00,WeatherDisplay:10.37,2013-08-14 01:34:00,
2013-08-13 20:39:00,70.0,59.8,30.03,East,96,0.0,0.0,70,0.00,CLR,SKC,0.00,WeatherDisplay:10.37,2013-08-14 01:39:00,
2013-08-13 20:44:00,69.3,59.9,30.03,East,96,0.0,0.0,72,0.00,CLR,SKC,0.00,WeatherDisplay:10.37,2013-08-14 01:44:00,
2013-08-13 20:49:00,68.8,60.2,30.03,East,96,0.0,0.0,74,0.00,CLR,SKC,0.00,WeatherDisplay:10.37,2013-08-14 01:49:00,
2013-08-13 20:54:00,68.2,60.0,30.03,East,96,0.0,0.0,75,0.00,CLR,SKC,0.00,WeatherDisplay:10.37,2013-08-14 01:54:00,
2013-08-13 20:59:00,67.8,60.0,30.04,East,96,0.0,0.0,76,0.00,CLR,SKC,0.00,WeatherDisplay:10.37,2013-08-14 01:59:00,
2013-08-13 21:04:00,67.5,59.7,30.04,East,96,0.0,0.0,76,0.00,CLR,SKC,0.00,WeatherDisplay:10.37,2013-08-14 02:04:00,
2013-08-13 21:09:00,67.3,59.8,30.04,East,96,0.0,0.0,77,0.00,CLR,SKC,0.00,WeatherDisplay:10.37,2013-08-14 02:09:00,
2013-08-13 21:14:00,66.9,59.5,30.05,East,96,0.0,0.0,77,0.00,CLR,SKC,0.00,WeatherDisplay:10.37,2013-08-14 02:14:00,
2013-08-13 21:19:00,66.8,59.4,30.05,East,96,0.0,0.0,77,0.00,CLR,SKC,0.00,WeatherDisplay:10.37,2013-08-14 02:19:00,
2013-08-13 21:24:00,66.6,59.2,30.05,East,96,0.0,0.0,77,0.00,CLR,SKC,0.00,WeatherDisplay:10.37,2013-08-14 02:24:00,
2013-08-13 21:29:00,66.2,59.1,30.06,East,96,0.0,0.0,78,0.00,CLR,SKC,0.00,WeatherDisplay:10.37,2013-08-14 02:29:00,
2013-08-13 21:34:00,65.7,59.4,30.06,East,96,0.0,0.0,80,0.00,CLR,SKC,0.00,WeatherDisplay:10.37,2013-08-14 02:34:00,
2013-08-13 21:39:00,65.4,59.4,30.06,East,97,0.0,0.0,81,0.00,CLR,SKC,0.00,WeatherDisplay:10.37,2013-08-14 02:39:00,
2013-08-13 21:44:00,65.4,59.4,30.06,East,96,0.0,0.0,81,0.00,CLR,SKC,0.00,WeatherDisplay:10.37,2013-08-14 02:44:00,
2013-08-13 21:49:00,65.6,60.0,30.06,East,96,0.0,0.0,82,0.00,CLR,SKC,0.00,WeatherDisplay:10.37,2013-08-14 02:49:00,
2013-08-13 21:54:00,66.0,60.7,30.07,East,84,0.0,0.0,83,0.00,CLR,SKC,0.00,WeatherDisplay:10.37,2013-08-14 02:54:00,
2013-08-13 21:59:00,65.2,60.6,30.07,NE,52,2.3,2.3,85,0.00,CLR,SKC,0.00,WeatherDisplay:10.37,2013-08-14 02:59:00,
2013-08-13 22:04:00,64.8,60.2,30.07,ENE,61,1.2,1.2,85,0.00,CLR,SKC,0.00,WeatherDisplay:10.37,2013-08-14 03:04:00,
2013-08-13 22:09:00,64.8,59.9,30.07,NE,51,1.2,1.2,84,0.00,CLR,SKC,0.00,WeatherDisplay:10.37,2013-08-14 03:09:00,
2013-08-13 22:14:00,65.0,60.0,30.07,North,5,2.3,0.0,84,0.00,CLR,SKC,0.00,WeatherDisplay:10.37,2013-08-14 03:14:00,
2013-08-13 22:19:00,65.2,59.9,30.07,NE,56,1.2,1.2,83,0.00,CLR,SKC,0.00,WeatherDisplay:10.37,2013-08-14 03:19:00,
2013-08-13 22:24:00,65.5,60.2,30.07,North,354,1.1,0.0,83,0.00,CLR,SKC,0.00,WeatherDisplay:10.37,2013-08-14 03:24:00,
2013-08-13 22:29:00,65.3,60.0,30.07,NE,48,1.2,0.0,83,0.00,CLR,SKC,0.00,WeatherDisplay:10.37,2013-08-14 03:29:00,
2013-08-13 22:34:00,64.9,59.9,30.07,East,79,0.0,0.0,84,0.00,CLR,SKC,0.00,WeatherDisplay:10.37,2013-08-14 03:34:00,
2013-08-13 22:39:00,64.7,59.8,30.07,East,79,1.2,1.2,84,0.00,CLR,SKC,0.00,WeatherDisplay:10.37,2013-08-14 03:39:00,
2013-08-13 22:44:00,64.4,59.5,30.07,East,79,1.2,0.0,84,0.00,CLR,SKC,0.00,WeatherDisplay:10.37,2013-08-14 03:44:00,
2013-08-13 22:49:00,64.4,59.1,30.07,East,79,0.0,0.0,83,0.00,CLR,SKC,0.00,WeatherDisplay:10.37,2013-08-14 03:49:00,
2013-08-13 22:54:00,64.9,58.9,30.07,East,79,0.0,0.0,81,0.00,CLR,SKC,0.00,WeatherDisplay:10.37,2013-08-14 03:54:00,
2013-08-13 22:59:00,65.5,58.5,30.07,East,79,0.0,0.0,78,0.00,CLR,SKC,0.00,WeatherDisplay:10.37,2013-08-14 03:59:00,
2013-08-13 23:01:00,66.0,58.6,30.07,East,84,1.1,1.1,77,0.00,CLR,SKC,0.00,WeatherDisplay:10.37,2013-08-14 04:01:00,
2013-08-13 23:02:00,66.2,58.8,30.07,East,84,1.2,1.2,77,0.00,CLR,SKC,0.00,WeatherDisplay:10.37,2013-08-14 04:02:00,
2013-08-13 23:07:00,65.7,59.0,30.07,East,96,1.2,1.2,79,0.00,CLR,SKC,0.00,WeatherDisplay:10.37,2013-08-14 04:07:00,
2013-08-13 23:12:00,65.0,59.0,30.07,East,96,0.0,0.0,81,0.00,CLR,SKC,0.00,WeatherDisplay:10.37,2013-08-14 04:12:00,
2013-08-13 23:17:00,64.0,58.7,30.07,East,96,0.0,0.0,83,0.00,CLR,SKC,0.00,WeatherDisplay:10.37,2013-08-14 04:17:00,
2013-08-13 23:22:00,63.4,58.5,30.07,East,96,0.0,0.0,84,0.00,CLR,SKC,0.00,WeatherDisplay:10.37,2013-08-14 04:22:00,
2013-08-13 23:27:00,63.6,58.7,30.07,East,96,0.0,0.0,84,0.00,CLR,SKC,0.00,WeatherDisplay:10.37,2013-08-14 04:27:00,
2013-08-13 23:32:00,64.0,58.7,30.07,East,96,0.0,0.0,83,0.00,CLR,SKC,0.00,WeatherDisplay:10.37,2013-08-14 04:32:00,
2013-08-13 23:37:00,63.6,58.3,30.07,East,96,0.0,0.0,83,0.00,CLR,SKC,0.00,WeatherDisplay:10.37,2013-08-14 04:37:00,
2013-08-13 23:42:00,63.1,58.2,30.08,East,96,0.0,0.0,84,0.00,CLR,SKC,0.00,WeatherDisplay:10.37,2013-08-14 04:42:00,
2013-08-13 23:47:00,62.6,58.0,30.08,East,96,0.0,0.0,85,0.00,CLR,SKC,0.00,WeatherDisplay:10.37,2013-08-14 04:47:00,
2013-08-13 23:52:00,62.6,58.0,30.08,East,96,0.0,0.0,85,0.00,CLR,SKC,0.00,WeatherDisplay:10.37,2013-08-14 04:52:00,
2013-08-13 23:57:00,62.5,57.9,30.08,East,95,0.0,0.0,85,0.00,CLR,SKC,0.00,WeatherDisplay:10.37,2013-08-14 04:57:00,